sensor_id;sensor_type;location;lat;lon;timestamp;P1;durP1;ratioP1;P2;durP2;ratioP2
2538;SDS011;1280;49.760;9.664;2023-04-25T00:00:23;7.70;;;5.07;;
2538;SDS011;1280;49.760;9.664;2023-04-25T00:03:04;8.07;;;5.73;;
2538;SDS011;1280;49.760;9.664;2023-04-25T00:05:36;12.13;;;6.40;;
2538;SDS011;1280;49.760;9.664;2023-04-25T00:08:08;9.63;;;5.50;;
2538;SDS011;1280;49.760;9.664;2023-04-25T00:10:39;8.30;;;5.50;;
2538;SDS011;1280;49.760;9.664;2023-04-25T00:13:14;8.60;;;5.97;;
2538;SDS011;1280;49.760;9.664;2023-04-25T00:15:48;10.60;;;6.30;;
2538;SDS011;1280;49.760;9.664;2023-04-25T00:18:30;7.90;;;5.40;;
2538;SDS011;1280;49.760;9.664;2023-04-25T00:21:03;11.27;;;5.90;;
2538;SDS011;1280;49.760;9.664;2023-04-25T00:23:37;9.87;;;5.97;;
2538;SDS011;1280;49.760;9.664;2023-04-25T00:26:10;9.07;;;6.37;;
2538;SDS011;1280;49.760;9.664;2023-04-25T00:28:53;10.00;;;5.70;;
2538;SDS011;1280;49.760;9.664;2023-04-25T00:31:28;7.80;;;5.40;;
2538;SDS011;1280;49.760;9.664;2023-04-25T00:34:01;7.63;;;5.70;;
2538;SDS011;1280;49.760;9.664;2023-04-25T00:36:39;8.47;;;5.40;;
2538;SDS011;1280;49.760;9.664;2023-04-25T00:39:13;8.77;;;6.17;;
2538;SDS011;1280;49.760;9.664;2023-04-25T00:41:51;9.30;;;5.87;;
2538;SDS011;1280;49.760;9.664;2023-04-25T00:44:34;11.20;;;6.20;;
2538;SDS011;1280;49.760;9.664;2023-04-25T00:47:07;8.77;;;6.13;;
2538;SDS011;1280;49.760;9.664;2023-04-25T00:49:38;9.47;;;5.93;;
2538;SDS011;1280;49.760;9.664;2023-04-25T00:52:16;10.40;;;6.23;;
2538;SDS011;1280;49.760;9.664;2023-04-25T00:54:46;9.23;;;5.90;;
2538;SDS011;1280;49.760;9.664;2023-04-25T00:57:26;8.03;;;5.17;;
2538;SDS011;1280;49.760;9.664;2023-04-25T01:00:02;7.03;;;4.57;;
2538;SDS011;1280;49.760;9.664;2023-04-25T01:02:37;7.87;;;4.77;;
2538;SDS011;1280;49.760;9.664;2023-04-25T01:05:13;7.20;;;5.17;;
2538;SDS011;1280;49.760;9.664;2023-04-25T01:07:46;7.00;;;4.73;;
2538;SDS011;1280;49.760;9.664;2023-04-25T01:10:16;6.17;;;4.47;;
2538;SDS011;1280;49.760;9.664;2023-04-25T01:13:00;5.90;;;3.57;;
2538;SDS011;1280;49.760;9.664;2023-04-25T01:15:39;7.40;;;3.87;;
2538;SDS011;1280;49.760;9.664;2023-04-25T01:18:13;7.50;;;3.57;;
2538;SDS011;1280;49.760;9.664;2023-04-25T01:20:48;5.70;;;3.50;;
2538;SDS011;1280;49.760;9.664;2023-04-25T01:23:22;6.43;;;3.27;;
2538;SDS011;1280;49.760;9.664;2023-04-25T01:25:53;6.23;;;4.13;;
2538;SDS011;1280;49.760;9.664;2023-04-25T01:28:28;8.03;;;4.23;;
2538;SDS011;1280;49.760;9.664;2023-04-25T01:30:57;13.10;;;4.40;;
2538;SDS011;1280;49.760;9.664;2023-04-25T01:33:32;7.30;;;4.30;;
2538;SDS011;1280;49.760;9.664;2023-04-25T01:36:01;6.83;;;4.03;;
2538;SDS011;1280;49.760;9.664;2023-04-25T01:38:39;5.00;;;3.10;;
2538;SDS011;1280;49.760;9.664;2023-04-25T01:41:11;7.70;;;4.00;;
2538;SDS011;1280;49.760;9.664;2023-04-25T01:44:28;6.37;;;4.20;;
2538;SDS011;1280;49.760;9.664;2023-04-25T01:46:40;6.37;;;3.90;;
2538;SDS011;1280;49.760;9.664;2023-04-25T01:49:11;6.70;;;3.80;;
2538;SDS011;1280;49.760;9.664;2023-04-25T01:51:49;6.10;;;3.57;;
2538;SDS011;1280;49.760;9.664;2023-04-25T01:54:29;7.00;;;4.40;;
2538;SDS011;1280;49.760;9.664;2023-04-25T01:56:59;5.50;;;3.53;;
2538;SDS011;1280;49.760;9.664;2023-04-25T01:59:33;4.73;;;2.60;;
2538;SDS011;1280;49.760;9.664;2023-04-25T02:02:21;4.70;;;2.73;;
2538;SDS011;1280;49.760;9.664;2023-04-25T02:04:56;4.67;;;2.57;;
2538;SDS011;1280;49.760;9.664;2023-04-25T02:07:28;5.30;;;2.00;;
2538;SDS011;1280;49.760;9.664;2023-04-25T02:10:17;4.27;;;2.00;;
2538;SDS011;1280;49.760;9.664;2023-04-25T02:13:07;4.20;;;2.10;;
2538;SDS011;1280;49.760;9.664;2023-04-25T02:16:15;6.23;;;2.17;;
2538;SDS011;1280;49.760;9.664;2023-04-25T02:18:47;4.77;;;2.20;;
2538;SDS011;1280;49.760;9.664;2023-04-25T02:21:26;5.13;;;2.33;;
2538;SDS011;1280;49.760;9.664;2023-04-25T02:23:59;4.47;;;2.20;;
2538;SDS011;1280;49.760;9.664;2023-04-25T02:26:39;4.13;;;2.03;;
2538;SDS011;1280;49.760;9.664;2023-04-25T02:29:13;4.80;;;2.20;;
2538;SDS011;1280;49.760;9.664;2023-04-25T02:31:46;5.47;;;2.67;;
2538;SDS011;1280;49.760;9.664;2023-04-25T02:34:16;4.73;;;2.50;;
2538;SDS011;1280;49.760;9.664;2023-04-25T02:36:51;5.30;;;2.33;;
2538;SDS011;1280;49.760;9.664;2023-04-25T02:39:30;4.50;;;2.50;;
2538;SDS011;1280;49.760;9.664;2023-04-25T02:42:10;6.20;;;2.87;;
2538;SDS011;1280;49.760;9.664;2023-04-25T02:44:51;5.10;;;2.87;;
2538;SDS011;1280;49.760;9.664;2023-04-25T02:47:20;6.30;;;3.00;;
2538;SDS011;1280;49.760;9.664;2023-04-25T02:49:53;5.77;;;3.10;;
2538;SDS011;1280;49.760;9.664;2023-04-25T02:52:26;6.23;;;3.20;;
2538;SDS011;1280;49.760;9.664;2023-04-25T02:55:13;5.57;;;3.20;;
2538;SDS011;1280;49.760;9.664;2023-04-25T02:58:02;9.07;;;3.00;;
2538;SDS011;1280;49.760;9.664;2023-04-25T03:00:57;5.00;;;2.77;;
2538;SDS011;1280;49.760;9.664;2023-04-25T03:03:31;5.30;;;2.90;;
2538;SDS011;1280;49.760;9.664;2023-04-25T03:06:16;4.83;;;2.83;;
2538;SDS011;1280;49.760;9.664;2023-04-25T03:08:59;5.77;;;3.37;;
2538;SDS011;1280;49.760;9.664;2023-04-25T03:11:30;5.83;;;3.30;;
2538;SDS011;1280;49.760;9.664;2023-04-25T03:14:18;5.40;;;3.10;;
2538;SDS011;1280;49.760;9.664;2023-04-25T03:16:50;5.20;;;3.07;;
2538;SDS011;1280;49.760;9.664;2023-04-25T03:19:23;6.57;;;2.80;;
2538;SDS011;1280;49.760;9.664;2023-04-25T03:21:57;5.13;;;3.10;;
2538;SDS011;1280;49.760;9.664;2023-04-25T03:24:36;6.20;;;3.63;;
2538;SDS011;1280;49.760;9.664;2023-04-25T03:27:14;9.60;;;3.80;;
2538;SDS011;1280;49.760;9.664;2023-04-25T03:29:59;6.80;;;3.90;;
2538;SDS011;1280;49.760;9.664;2023-04-25T03:32:45;10.57;;;4.90;;
2538;SDS011;1280;49.760;9.664;2023-04-25T03:35:24;7.83;;;5.00;;
2538;SDS011;1280;49.760;9.664;2023-04-25T03:37:55;7.30;;;4.03;;
2538;SDS011;1280;49.760;9.664;2023-04-25T03:40:33;7.40;;;4.60;;
2538;SDS011;1280;49.760;9.664;2023-04-25T03:43:35;10.00;;;4.97;;
2538;SDS011;1280;49.760;9.664;2023-04-25T03:46:15;8.93;;;4.57;;
2538;SDS011;1280;49.760;9.664;2023-04-25T03:48:50;7.40;;;5.03;;
2538;SDS011;1280;49.760;9.664;2023-04-25T03:51:30;8.60;;;5.07;;
2538;SDS011;1280;49.760;9.664;2023-04-25T03:54:06;7.53;;;4.57;;
2538;SDS011;1280;49.760;9.664;2023-04-25T03:56:39;9.80;;;5.13;;
2538;SDS011;1280;49.760;9.664;2023-04-25T03:59:24;8.60;;;5.17;;
2538;SDS011;1280;49.760;9.664;2023-04-25T04:01:59;8.63;;;5.67;;
2538;SDS011;1280;49.760;9.664;2023-04-25T04:04:35;7.33;;;4.60;;
2538;SDS011;1280;49.760;9.664;2023-04-25T04:07:14;8.30;;;5.20;;
2538;SDS011;1280;49.760;9.664;2023-04-25T04:09:49;8.60;;;5.73;;
2538;SDS011;1280;49.760;9.664;2023-04-25T04:12:29;9.60;;;5.50;;
2538;SDS011;1280;49.760;9.664;2023-04-25T04:15:04;8.70;;;5.17;;
2538;SDS011;1280;49.760;9.664;2023-04-25T04:17:37;9.37;;;5.30;;
2538;SDS011;1280;49.760;9.664;2023-04-25T04:20:19;8.67;;;5.57;;
2538;SDS011;1280;49.760;9.664;2023-04-25T04:22:49;8.87;;;5.73;;
2538;SDS011;1280;49.760;9.664;2023-04-25T04:25:20;10.77;;;6.47;;
2538;SDS011;1280;49.760;9.664;2023-04-25T04:28:07;8.43;;;5.40;;
2538;SDS011;1280;49.760;9.664;2023-04-25T04:30:56;10.03;;;7.07;;
2538;SDS011;1280;49.760;9.664;2023-04-25T04:33:35;12.30;;;7.47;;
2538;SDS011;1280;49.760;9.664;2023-04-25T04:36:09;9.50;;;6.53;;
2538;SDS011;1280;49.760;9.664;2023-04-25T04:38:48;10.07;;;6.90;;
2538;SDS011;1280;49.760;9.664;2023-04-25T04:41:32;13.47;;;7.70;;
2538;SDS011;1280;49.760;9.664;2023-04-25T04:44:08;9.83;;;6.93;;
2538;SDS011;1280;49.760;9.664;2023-04-25T04:47:13;11.43;;;6.77;;
2538;SDS011;1280;49.760;9.664;2023-04-25T04:50:11;13.00;;;6.33;;
2538;SDS011;1280;49.760;9.664;2023-04-25T04:53:22;11.07;;;7.20;;
2538;SDS011;1280;49.760;9.664;2023-04-25T04:56:39;10.67;;;6.90;;
2538;SDS011;1280;49.760;9.664;2023-04-25T04:59:51;9.30;;;6.20;;
2538;SDS011;1280;49.760;9.664;2023-04-25T05:02:41;10.30;;;6.53;;
2538;SDS011;1280;49.760;9.664;2023-04-25T05:05:45;13.43;;;6.93;;
2538;SDS011;1280;49.760;9.664;2023-04-25T05:08:37;9.90;;;7.27;;
2538;SDS011;1280;49.760;9.664;2023-04-25T05:11:34;12.40;;;8.97;;
2538;SDS011;1280;49.760;9.664;2023-04-25T05:14:24;11.67;;;7.70;;
2538;SDS011;1280;49.760;9.664;2023-04-25T05:17:07;11.30;;;7.23;;
2538;SDS011;1280;49.760;9.664;2023-04-25T05:19:59;11.90;;;7.47;;
2538;SDS011;1280;49.760;9.664;2023-04-25T05:23:06;12.67;;;7.47;;
2538;SDS011;1280;49.760;9.664;2023-04-25T05:26:01;14.10;;;9.07;;
2538;SDS011;1280;49.760;9.664;2023-04-25T05:28:52;13.50;;;7.67;;
2538;SDS011;1280;49.760;9.664;2023-04-25T05:31:55;11.70;;;8.30;;
2538;SDS011;1280;49.760;9.664;2023-04-25T05:34:38;12.80;;;8.00;;
2538;SDS011;1280;49.760;9.664;2023-04-25T05:37:25;13.73;;;8.87;;
2538;SDS011;1280;49.760;9.664;2023-04-25T05:40:23;16.00;;;9.60;;
2538;SDS011;1280;49.760;9.664;2023-04-25T05:43:15;12.47;;;9.10;;
2538;SDS011;1280;49.760;9.664;2023-04-25T05:45:55;16.77;;;9.70;;
2538;SDS011;1280;49.760;9.664;2023-04-25T05:48:40;14.47;;;9.63;;
2538;SDS011;1280;49.760;9.664;2023-04-25T05:51:39;18.50;;;10.93;;
2538;SDS011;1280;49.760;9.664;2023-04-25T05:54:37;14.20;;;10.50;;
2538;SDS011;1280;49.760;9.664;2023-04-25T05:57:20;12.20;;;9.20;;
2538;SDS011;1280;49.760;9.664;2023-04-25T05:59:49;16.37;;;12.10;;
2538;SDS011;1280;49.760;9.664;2023-04-25T06:02:43;15.43;;;10.40;;
2538;SDS011;1280;49.760;9.664;2023-04-25T06:05:18;18.27;;;11.97;;
2538;SDS011;1280;49.760;9.664;2023-04-25T06:07:55;14.57;;;11.60;;
2538;SDS011;1280;49.760;9.664;2023-04-25T06:10:26;17.57;;;11.90;;
2538;SDS011;1280;49.760;9.664;2023-04-25T06:13:06;18.63;;;12.70;;
2538;SDS011;1280;49.760;9.664;2023-04-25T06:15:38;18.17;;;11.27;;
2538;SDS011;1280;49.760;9.664;2023-04-25T06:18:09;17.90;;;10.67;;
2538;SDS011;1280;49.760;9.664;2023-04-25T06:20:41;17.77;;;12.17;;
2538;SDS011;1280;49.760;9.664;2023-04-25T06:23:19;15.57;;;11.27;;
2538;SDS011;1280;49.760;9.664;2023-04-25T06:25:56;15.07;;;11.40;;
2538;SDS011;1280;49.760;9.664;2023-04-25T06:28:30;19.23;;;11.80;;
2538;SDS011;1280;49.760;9.664;2023-04-25T06:31:04;16.97;;;10.50;;
2538;SDS011;1280;49.760;9.664;2023-04-25T06:33:34;14.33;;;9.60;;
2538;SDS011;1280;49.760;9.664;2023-04-25T06:36:10;15.43;;;10.30;;
2538;SDS011;1280;49.760;9.664;2023-04-25T06:39:00;13.33;;;8.43;;
2538;SDS011;1280;49.760;9.664;2023-04-25T06:41:32;10.90;;;7.53;;
2538;SDS011;1280;49.760;9.664;2023-04-25T06:44:32;11.50;;;7.67;;
2538;SDS011;1280;49.760;9.664;2023-04-25T06:47:08;14.37;;;8.30;;
2538;SDS011;1280;49.760;9.664;2023-04-25T06:49:43;14.40;;;7.80;;
2538;SDS011;1280;49.760;9.664;2023-04-25T06:52:25;12.63;;;7.67;;
2538;SDS011;1280;49.760;9.664;2023-04-25T06:55:03;16.27;;;8.00;;
2538;SDS011;1280;49.760;9.664;2023-04-25T06:58:01;13.93;;;7.50;;
2538;SDS011;1280;49.760;9.664;2023-04-25T07:01:02;16.07;;;7.37;;
2538;SDS011;1280;49.760;9.664;2023-04-25T07:03:37;10.90;;;7.40;;
2538;SDS011;1280;49.760;9.664;2023-04-25T07:06:19;16.13;;;9.03;;
2538;SDS011;1280;49.760;9.664;2023-04-25T07:08:53;15.33;;;7.53;;
2538;SDS011;1280;49.760;9.664;2023-04-25T07:11:24;16.07;;;7.17;;
2538;SDS011;1280;49.760;9.664;2023-04-25T07:13:57;14.10;;;6.80;;
2538;SDS011;1280;49.760;9.664;2023-04-25T07:16:39;16.57;;;7.13;;
2538;SDS011;1280;49.760;9.664;2023-04-25T07:19:13;14.20;;;7.23;;
2538;SDS011;1280;49.760;9.664;2023-04-25T07:21:48;13.33;;;6.70;;
2538;SDS011;1280;49.760;9.664;2023-04-25T07:24:28;17.23;;;7.60;;
2538;SDS011;1280;49.760;9.664;2023-04-25T07:27:10;12.80;;;6.90;;
2538;SDS011;1280;49.760;9.664;2023-04-25T07:29:55;12.30;;;6.90;;
2538;SDS011;1280;49.760;9.664;2023-04-25T07:32:28;15.00;;;5.90;;
2538;SDS011;1280;49.760;9.664;2023-04-25T07:35:00;12.23;;;5.80;;
2538;SDS011;1280;49.760;9.664;2023-04-25T07:37:33;13.13;;;5.80;;
2538;SDS011;1280;49.760;9.664;2023-04-25T07:40:13;10.20;;;5.83;;
2538;SDS011;1280;49.760;9.664;2023-04-25T07:42:49;11.50;;;5.63;;
2538;SDS011;1280;49.760;9.664;2023-04-25T07:45:42;9.70;;;4.70;;
2538;SDS011;1280;49.760;9.664;2023-04-25T07:48:28;13.30;;;5.30;;
2538;SDS011;1280;49.760;9.664;2023-04-25T07:51:03;8.50;;;4.10;;
2538;SDS011;1280;49.760;9.664;2023-04-25T07:53:37;14.83;;;4.63;;
2538;SDS011;1280;49.760;9.664;2023-04-25T07:56:13;9.43;;;4.70;;
2538;SDS011;1280;49.760;9.664;2023-04-25T07:58:47;12.43;;;4.50;;
2538;SDS011;1280;49.760;9.664;2023-04-25T08:01:23;9.07;;;4.43;;
2538;SDS011;1280;49.760;9.664;2023-04-25T08:04:04;9.80;;;4.03;;
2538;SDS011;1280;49.760;9.664;2023-04-25T08:06:49;8.97;;;4.37;;
2538;SDS011;1280;49.760;9.664;2023-04-25T08:09:32;14.80;;;3.23;;
2538;SDS011;1280;49.760;9.664;2023-04-25T08:12:10;6.00;;;3.43;;
2538;SDS011;1280;49.760;9.664;2023-04-25T08:14:48;8.53;;;4.47;;
2538;SDS011;1280;49.760;9.664;2023-04-25T08:17:20;6.83;;;3.80;;
2538;SDS011;1280;49.760;9.664;2023-04-25T08:19:57;6.70;;;3.33;;
2538;SDS011;1280;49.760;9.664;2023-04-25T08:22:37;10.03;;;4.20;;
2538;SDS011;1280;49.760;9.664;2023-04-25T08:25:24;7.70;;;3.87;;
2538;SDS011;1280;49.760;9.664;2023-04-25T08:27:54;9.23;;;3.50;;
2538;SDS011;1280;49.760;9.664;2023-04-25T08:30:26;6.30;;;3.43;;
2538;SDS011;1280;49.760;9.664;2023-04-25T08:32:59;10.93;;;3.70;;
2538;SDS011;1280;49.760;9.664;2023-04-25T08:36:01;6.63;;;3.00;;
2538;SDS011;1280;49.760;9.664;2023-04-25T08:38:31;9.97;;;3.63;;
2538;SDS011;1280;49.760;9.664;2023-04-25T08:41:09;8.67;;;5.77;;
2538;SDS011;1280;49.760;9.664;2023-04-25T08:43:42;5.33;;;2.63;;
2538;SDS011;1280;49.760;9.664;2023-04-25T08:46:13;6.10;;;3.30;;
2538;SDS011;1280;49.760;9.664;2023-04-25T08:49:13;6.70;;;3.37;;
2538;SDS011;1280;49.760;9.664;2023-04-25T08:51:47;8.87;;;4.00;;
2538;SDS011;1280;49.760;9.664;2023-04-25T08:54:24;6.17;;;2.53;;
2538;SDS011;1280;49.760;9.664;2023-04-25T08:57:08;5.70;;;2.80;;
2538;SDS011;1280;49.760;9.664;2023-04-25T08:59:40;7.53;;;3.67;;
2538;SDS011;1280;49.760;9.664;2023-04-25T09:02:16;8.57;;;3.10;;
2538;SDS011;1280;49.760;9.664;2023-04-25T09:04:58;6.27;;;3.17;;
2538;SDS011;1280;49.760;9.664;2023-04-25T09:07:45;9.00;;;3.70;;
2538;SDS011;1280;49.760;9.664;2023-04-25T09:10:25;6.47;;;3.17;;
2538;SDS011;1280;49.760;9.664;2023-04-25T09:13:05;11.00;;;3.70;;
2538;SDS011;1280;49.760;9.664;2023-04-25T09:16:12;7.23;;;3.30;;
2538;SDS011;1280;49.760;9.664;2023-04-25T09:19:21;6.80;;;3.33;;
2538;SDS011;1280;49.760;9.664;2023-04-25T09:22:00;6.37;;;3.10;;
2538;SDS011;1280;49.760;9.664;2023-04-25T09:24:43;8.27;;;2.83;;
2538;SDS011;1280;49.760;9.664;2023-04-25T09:27:29;6.33;;;3.30;;
2538;SDS011;1280;49.760;9.664;2023-04-25T09:30:15;9.20;;;3.20;;
2538;SDS011;1280;49.760;9.664;2023-04-25T09:33:18;9.60;;;3.10;;
2538;SDS011;1280;49.760;9.664;2023-04-25T09:36:25;6.97;;;3.53;;
2538;SDS011;1280;49.760;9.664;2023-04-25T09:39:16;16.00;;;4.13;;
2538;SDS011;1280;49.760;9.664;2023-04-25T09:42:20;7.40;;;3.37;;
2538;SDS011;1280;49.760;9.664;2023-04-25T09:44:54;7.07;;;3.30;;
2538;SDS011;1280;49.760;9.664;2023-04-25T09:48:03;5.80;;;2.97;;
2538;SDS011;1280;49.760;9.664;2023-04-25T09:51:06;7.10;;;3.90;;
2538;SDS011;1280;49.760;9.664;2023-04-25T09:53:56;7.47;;;3.43;;
2538;SDS011;1280;49.760;9.664;2023-04-25T09:56:51;7.63;;;3.50;;
2538;SDS011;1280;49.760;9.664;2023-04-25T09:59:32;8.50;;;3.90;;
2538;SDS011;1280;49.760;9.664;2023-04-25T10:02:07;8.10;;;3.63;;
2538;SDS011;1280;49.760;9.664;2023-04-25T10:05:05;7.67;;;3.73;;
2538;SDS011;1280;49.760;9.664;2023-04-25T10:07:38;8.57;;;3.83;;
2538;SDS011;1280;49.760;9.664;2023-04-25T10:10:18;8.83;;;3.50;;
2538;SDS011;1280;49.760;9.664;2023-04-25T10:12:57;10.17;;;3.23;;
2538;SDS011;1280;49.760;9.664;2023-04-25T10:18:48;8.07;;;3.70;;
2538;SDS011;1280;49.760;9.664;2023-04-25T10:21:21;12.70;;;4.07;;
2538;SDS011;1280;49.760;9.664;2023-04-25T10:23:54;8.43;;;3.57;;
2538;SDS011;1280;49.760;9.664;2023-04-25T10:26:25;6.90;;;3.80;;
2538;SDS011;1280;49.760;9.664;2023-04-25T10:29:03;7.30;;;4.57;;
2538;SDS011;1280;49.760;9.664;2023-04-25T10:31:44;9.50;;;4.10;;
2538;SDS011;1280;49.760;9.664;2023-04-25T10:34:37;8.00;;;3.50;;
2538;SDS011;1280;49.760;9.664;2023-04-25T10:37:12;10.17;;;4.00;;
2538;SDS011;1280;49.760;9.664;2023-04-25T10:39:47;12.47;;;3.80;;
2538;SDS011;1280;49.760;9.664;2023-04-25T10:42:20;7.20;;;2.90;;
2538;SDS011;1280;49.760;9.664;2023-04-25T10:45:04;8.40;;;3.30;;
2538;SDS011;1280;49.760;9.664;2023-04-25T10:47:43;11.27;;;4.27;;
2538;SDS011;1280;49.760;9.664;2023-04-25T10:50:17;8.40;;;3.40;;
2538;SDS011;1280;49.760;9.664;2023-04-25T10:53:13;8.63;;;2.97;;
2538;SDS011;1280;49.760;9.664;2023-04-25T10:55:51;9.83;;;3.27;;
2538;SDS011;1280;49.760;9.664;2023-04-25T10:58:23;6.40;;;3.63;;
2538;SDS011;1280;49.760;9.664;2023-04-25T11:00:55;4.77;;;2.63;;
2538;SDS011;1280;49.760;9.664;2023-04-25T11:03:45;5.40;;;2.67;;
2538;SDS011;1280;49.760;9.664;2023-04-25T11:06:29;8.07;;;3.10;;
2538;SDS011;1280;49.760;9.664;2023-04-25T11:09:13;7.40;;;3.13;;
2538;SDS011;1280;49.760;9.664;2023-04-25T11:11:53;8.53;;;3.70;;
2538;SDS011;1280;49.760;9.664;2023-04-25T11:14:32;6.90;;;3.47;;
2538;SDS011;1280;49.760;9.664;2023-04-25T11:17:09;7.30;;;3.37;;
2538;SDS011;1280;49.760;9.664;2023-04-25T11:19:45;7.17;;;3.40;;
2538;SDS011;1280;49.760;9.664;2023-04-25T11:22:36;8.00;;;3.20;;
2538;SDS011;1280;49.760;9.664;2023-04-25T11:25:11;9.87;;;3.67;;
2538;SDS011;1280;49.760;9.664;2023-04-25T11:27:52;7.60;;;3.80;;
2538;SDS011;1280;49.760;9.664;2023-04-25T11:30:26;8.10;;;3.40;;
2538;SDS011;1280;49.760;9.664;2023-04-25T11:33:06;6.83;;;3.87;;
2538;SDS011;1280;49.760;9.664;2023-04-25T11:35:44;6.47;;;3.50;;
2538;SDS011;1280;49.760;9.664;2023-04-25T11:38:22;6.63;;;3.40;;
2538;SDS011;1280;49.760;9.664;2023-04-25T11:41:00;7.50;;;3.73;;
2538;SDS011;1280;49.760;9.664;2023-04-25T11:43:33;8.80;;;4.00;;
2538;SDS011;1280;49.760;9.664;2023-04-25T11:46:09;9.93;;;3.63;;
2538;SDS011;1280;49.760;9.664;2023-04-25T11:48:57;8.23;;;4.10;;
2538;SDS011;1280;49.760;9.664;2023-04-25T11:51:37;11.30;;;4.40;;
2538;SDS011;1280;49.760;9.664;2023-04-25T11:54:11;9.33;;;4.40;;
2538;SDS011;1280;49.760;9.664;2023-04-25T11:56:43;7.10;;;3.97;;
2538;SDS011;1280;49.760;9.664;2023-04-25T11:59:22;6.80;;;3.60;;
2538;SDS011;1280;49.760;9.664;2023-04-25T12:02:00;6.93;;;3.93;;
2538;SDS011;1280;49.760;9.664;2023-04-25T12:04:38;8.83;;;4.40;;
2538;SDS011;1280;49.760;9.664;2023-04-25T12:07:15;7.50;;;4.13;;
2538;SDS011;1280;49.760;9.664;2023-04-25T12:10:05;9.67;;;4.10;;
2538;SDS011;1280;49.760;9.664;2023-04-25T12:12:41;7.80;;;3.40;;
2538;SDS011;1280;49.760;9.664;2023-04-25T12:15:15;9.17;;;3.70;;
2538;SDS011;1280;49.760;9.664;2023-04-25T12:17:48;8.43;;;4.00;;
2538;SDS011;1280;49.760;9.664;2023-04-25T12:20:24;7.93;;;3.77;;
2538;SDS011;1280;49.760;9.664;2023-04-25T12:22:56;8.63;;;4.10;;
2538;SDS011;1280;49.760;9.664;2023-04-25T12:25:35;8.73;;;4.23;;
2538;SDS011;1280;49.760;9.664;2023-04-25T12:28:10;9.73;;;4.50;;
2538;SDS011;1280;49.760;9.664;2023-04-25T12:31:05;6.83;;;4.20;;
2538;SDS011;1280;49.760;9.664;2023-04-25T12:33:44;9.47;;;4.87;;
2538;SDS011;1280;49.760;9.664;2023-04-25T12:36:16;7.77;;;4.27;;
2538;SDS011;1280;49.760;9.664;2023-04-25T12:38:53;8.53;;;4.77;;
2538;SDS011;1280;49.760;9.664;2023-04-25T12:41:36;9.10;;;4.83;;
2538;SDS011;1280;49.760;9.664;2023-04-25T12:44:09;8.93;;;4.10;;
2538;SDS011;1280;49.760;9.664;2023-04-25T12:46:41;9.23;;;4.60;;
2538;SDS011;1280;49.760;9.664;2023-04-25T12:49:20;12.77;;;5.00;;
2538;SDS011;1280;49.760;9.664;2023-04-25T12:51:53;8.47;;;4.97;;
2538;SDS011;1280;49.760;9.664;2023-04-25T12:54:30;7.37;;;4.43;;
2538;SDS011;1280;49.760;9.664;2023-04-25T12:57:06;8.60;;;5.03;;
2538;SDS011;1280;49.760;9.664;2023-04-25T12:59:47;15.33;;;4.80;;
2538;SDS011;1280;49.760;9.664;2023-04-25T13:02:22;10.70;;;6.10;;
2538;SDS011;1280;49.760;9.664;2023-04-25T13:04:52;12.53;;;5.50;;
2538;SDS011;1280;49.760;9.664;2023-04-25T13:07:26;9.90;;;5.10;;
2538;SDS011;1280;49.760;9.664;2023-04-25T13:10:04;12.60;;;5.43;;
2538;SDS011;1280;49.760;9.664;2023-04-25T13:12:45;8.07;;;5.30;;
2538;SDS011;1280;49.760;9.664;2023-04-25T13:15:24;8.20;;;5.00;;
2538;SDS011;1280;49.760;9.664;2023-04-25T13:18:01;9.03;;;5.50;;
2538;SDS011;1280;49.760;9.664;2023-04-25T13:20:35;10.87;;;5.10;;
2538;SDS011;1280;49.760;9.664;2023-04-25T13:23:06;10.47;;;4.90;;
2538;SDS011;1280;49.760;9.664;2023-04-25T13:25:40;7.50;;;4.40;;
2538;SDS011;1280;49.760;9.664;2023-04-25T13:28:17;7.30;;;3.90;;
2538;SDS011;1280;49.760;9.664;2023-04-25T13:30:52;9.00;;;4.80;;
2538;SDS011;1280;49.760;9.664;2023-04-25T13:33:27;10.13;;;4.40;;
2538;SDS011;1280;49.760;9.664;2023-04-25T13:36:03;8.63;;;4.40;;
2538;SDS011;1280;49.760;9.664;2023-04-25T13:38:36;10.97;;;4.73;;
2538;SDS011;1280;49.760;9.664;2023-04-25T13:41:12;7.50;;;4.80;;
2538;SDS011;1280;49.760;9.664;2023-04-25T13:43:51;8.30;;;4.47;;
2538;SDS011;1280;49.760;9.664;2023-04-25T13:46:29;8.53;;;3.80;;
2538;SDS011;1280;49.760;9.664;2023-04-25T13:49:06;7.33;;;3.90;;
2538;SDS011;1280;49.760;9.664;2023-04-25T13:51:42;10.80;;;4.33;;
2538;SDS011;1280;49.760;9.664;2023-04-25T13:54:22;8.80;;;4.57;;
2538;SDS011;1280;49.760;9.664;2023-04-25T13:56:55;8.93;;;3.80;;
2538;SDS011;1280;49.760;9.664;2023-04-25T13:59:43;6.10;;;3.50;;
2538;SDS011;1280;49.760;9.664;2023-04-25T14:02:17;7.77;;;3.50;;
2538;SDS011;1280;49.760;9.664;2023-04-25T14:04:51;9.57;;;4.10;;
2538;SDS011;1280;49.760;9.664;2023-04-25T14:07:22;8.90;;;3.67;;
2538;SDS011;1280;49.760;9.664;2023-04-25T14:09:58;7.53;;;3.33;;
2538;SDS011;1280;49.760;9.664;2023-04-25T14:12:34;8.50;;;4.07;;
2538;SDS011;1280;49.760;9.664;2023-04-25T14:15:16;8.90;;;4.27;;
2538;SDS011;1280;49.760;9.664;2023-04-25T14:17:50;8.10;;;3.60;;
2538;SDS011;1280;49.760;9.664;2023-04-25T14:20:29;7.57;;;4.00;;
2538;SDS011;1280;49.760;9.664;2023-04-25T14:23:01;8.10;;;3.53;;
2538;SDS011;1280;49.760;9.664;2023-04-25T14:25:33;11.63;;;4.10;;
2538;SDS011;1280;49.760;9.664;2023-04-25T14:28:14;5.80;;;3.43;;
2538;SDS011;1280;49.760;9.664;2023-04-25T14:30:51;7.60;;;3.60;;
2538;SDS011;1280;49.760;9.664;2023-04-25T14:33:23;7.50;;;4.10;;
2538;SDS011;1280;49.760;9.664;2023-04-25T14:35:53;8.40;;;3.83;;
2538;SDS011;1280;49.760;9.664;2023-04-25T14:38:26;10.17;;;3.83;;
2538;SDS011;1280;49.760;9.664;2023-04-25T14:40:59;7.03;;;3.53;;
2538;SDS011;1280;49.760;9.664;2023-04-25T14:43:34;10.00;;;3.80;;
2538;SDS011;1280;49.760;9.664;2023-04-25T14:46:13;6.20;;;3.20;;
2538;SDS011;1280;49.760;9.664;2023-04-25T14:48:45;8.23;;;3.73;;
2538;SDS011;1280;49.760;9.664;2023-04-25T14:51:20;8.13;;;3.80;;
2538;SDS011;1280;49.760;9.664;2023-04-25T14:53:50;9.40;;;3.60;;
2538;SDS011;1280;49.760;9.664;2023-04-25T14:56:31;8.90;;;4.00;;
2538;SDS011;1280;49.760;9.664;2023-04-25T14:59:04;7.70;;;3.67;;
2538;SDS011;1280;49.760;9.664;2023-04-25T15:01:40;12.33;;;3.67;;
2538;SDS011;1280;49.760;9.664;2023-04-25T15:04:17;12.33;;;3.43;;
2538;SDS011;1280;49.760;9.664;2023-04-25T15:06:52;6.93;;;3.20;;
2538;SDS011;1280;49.760;9.664;2023-04-25T15:09:27;8.00;;;3.43;;
2538;SDS011;1280;49.760;9.664;2023-04-25T15:12:00;9.97;;;3.20;;
2538;SDS011;1280;49.760;9.664;2023-04-25T15:14:38;10.10;;;4.10;;
2538;SDS011;1280;49.760;9.664;2023-04-25T15:17:12;9.47;;;2.80;;
2538;SDS011;1280;49.760;9.664;2023-04-25T15:19:42;6.50;;;3.50;;
2538;SDS011;1280;49.760;9.664;2023-04-25T15:22:15;8.57;;;3.50;;
2538;SDS011;1280;49.760;9.664;2023-04-25T15:24:47;9.00;;;3.47;;
2538;SDS011;1280;49.760;9.664;2023-04-25T15:27:26;7.00;;;3.20;;
2538;SDS011;1280;49.760;9.664;2023-04-25T15:30:00;8.97;;;3.60;;
2538;SDS011;1280;49.760;9.664;2023-04-25T15:33:08;10.03;;;3.60;;
2538;SDS011;1280;49.760;9.664;2023-04-25T15:35:44;10.47;;;3.80;;
2538;SDS011;1280;49.760;9.664;2023-04-25T15:38:20;9.63;;;3.87;;
2538;SDS011;1280;49.760;9.664;2023-04-25T15:41:00;8.03;;;4.00;;
2538;SDS011;1280;49.760;9.664;2023-04-25T15:43:34;12.03;;;3.70;;
2538;SDS011;1280;49.760;9.664;2023-04-25T15:46:09;8.27;;;4.33;;
2538;SDS011;1280;49.760;9.664;2023-04-25T15:48:48;9.63;;;3.67;;
2538;SDS011;1280;49.760;9.664;2023-04-25T15:51:28;7.23;;;3.50;;
2538;SDS011;1280;49.760;9.664;2023-04-25T15:54:01;7.23;;;3.50;;
2538;SDS011;1280;49.760;9.664;2023-04-25T15:56:34;8.03;;;3.07;;
2538;SDS011;1280;49.760;9.664;2023-04-25T15:59:04;8.27;;;3.30;;
2538;SDS011;1280;49.760;9.664;2023-04-25T16:01:36;7.87;;;3.00;;
2538;SDS011;1280;49.760;9.664;2023-04-25T16:04:26;9.10;;;3.37;;
2538;SDS011;1280;49.760;9.664;2023-04-25T16:07:06;12.33;;;3.53;;
2538;SDS011;1280;49.760;9.664;2023-04-25T16:09:52;12.63;;;3.60;;
2538;SDS011;1280;49.760;9.664;2023-04-25T16:12:33;7.40;;;3.20;;
2538;SDS011;1280;49.760;9.664;2023-04-25T16:15:18;8.10;;;3.70;;
2538;SDS011;1280;49.760;9.664;2023-04-25T16:18:01;6.57;;;3.13;;
2538;SDS011;1280;49.760;9.664;2023-04-25T16:20:46;6.43;;;3.00;;
2538;SDS011;1280;49.760;9.664;2023-04-25T16:23:20;10.50;;;4.10;;
2538;SDS011;1280;49.760;9.664;2023-04-25T16:25:52;10.10;;;4.23;;
2538;SDS011;1280;49.760;9.664;2023-04-25T16:28:31;12.03;;;3.30;;